TimeAKST,TemperatureF,Dew PointF,Humidity,Sea Level PressureIn,VisibilityMPH,Wind Direction,Wind SpeedMPH,Gust SpeedMPH,PrecipitationIn,Events,Conditions,WindDirDegrees,DateUTC
12:53 AM,37.0,34.0,89,29.39,10.0,North,11.5,19.6,0.00,Rain,Light Rain,10,2013-12-22 09:53:00
1:53 AM,37.0,34.0,89,29.38,10.0,North,10.4,-,0.00,Rain,Light Rain,10,2013-12-22 10:53:00
3:53 AM,37.9,34.0,86,29.34,10.0,NNE,12.7,20.7,0.00,,Overcast,30,2013-12-22 12:53:00
4:53 AM,37.0,34.0,89,29.32,10.0,NNE,13.8,19.6,0.01,,Overcast,30,2013-12-22 13:53:00
5:53 AM,37.9,34.0,86,29.31,10.0,North,13.8,19.6,N/A,,Overcast,10,2013-12-22 14:53:00
6:53 AM,37.0,32.0,82,29.31,10.0,North,11.5,21.9,N/A,,Overcast,360,2013-12-22 15:53:00
7:53 AM,36.0,30.9,82,29.31,10.0,North,17.3,26.5,N/A,,Overcast,360,2013-12-22 16:53:00
8:53 AM,36.0,28.9,76,29.31,10.0,North,20.7,28.8,N/A,,Overcast,360,2013-12-22 17:53:00
9:53 AM,37.9,28.0,68,29.31,10.0,North,19.6,25.3,N/A,,Overcast,360,2013-12-22 18:53:00
10:53 AM,37.9,27.0,65,29.33,10.0,NNW,19.6,29.9,N/A,,Partly Cloudy,340,2013-12-22 19:53:00
11:53 AM,36.0,27.0,70,29.33,10.0,North,15.0,27.6,N/A,,Overcast,360,2013-12-22 20:53:00
12:53 PM,37.0,28.0,70,29.34,10.0,North,13.8,26.5,N/A,,Overcast,10,2013-12-22 21:53:00
1:53 PM,37.9,27.0,65,29.35,10.0,NNW,16.1,26.5,N/A,,Overcast,340,2013-12-22 22:53:00
2:53 PM,37.0,27.0,67,29.37,10.0,NNW,21.9,33.4,N/A,,Overcast,330,2013-12-22 23:53:00
3:53 PM,37.9,25.0,60,29.38,10.0,NW,20.7,29.9,N/A,,Overcast,320,2013-12-23 00:53:00
4:53 PM,37.0,25.0,62,29.40,10.0,NNW,16.1,27.6,N/A,,Overcast,340,2013-12-23 01:53:00
5:53 PM,36.0,25.0,64,29.43,10.0,NNW,20.7,31.1,N/A,,Overcast,330,2013-12-23 02:53:00
6:53 PM,36.0,25.0,64,29.45,10.0,NNW,18.4,36.8,N/A,,Mostly Cloudy,330,2013-12-23 03:53:00
7:53 PM,35.1,24.1,64,29.47,10.0,NNW,18.4,32.2,N/A,,Mostly Cloudy,330,2013-12-23 04:53:00
8:53 PM,35.1,21.9,59,29.50,10.0,NNW,18.4,33.4,N/A,,Mostly Cloudy,330,2013-12-23 05:53:00
9:53 PM,34.0,18.0,52,29.53,10.0,NW,19.6,34.5,N/A,,Partly Cloudy,320,2013-12-23 06:53:00
10:53 PM,33.1,12.0,42,29.55,10.0,NNW,20.7,33.4,N/A,,Clear,330,2013-12-23 07:53:00
11:53 PM,32.0,7.0,35,29.59,10.0,North,16.1,36.8,N/A,,Clear,10,2013-12-23 08:53:00